sensor_id;sensor_type;location;lat;lon;timestamp;pressure;altitude;pressure_sealevel;temperature;humidity
68822;BME280;55834;50.870;4.606;2023-05-22T00:01:20;100911.00;;;11.62;65.38
68822;BME280;55834;50.870;4.606;2023-05-22T00:03:47;100899.28;;;11.70;65.61
68822;BME280;55834;50.870;4.606;2023-05-22T00:06:14;100899.03;;;12.06;62.72
68822;BME280;55834;50.870;4.606;2023-05-22T00:08:42;100901.69;;;12.06;62.79
68822;BME280;55834;50.870;4.606;2023-05-22T00:11:08;100895.31;;;12.40;60.83
68822;BME280;55834;50.870;4.606;2023-05-22T00:13:33;100886.50;;;12.39;61.12
68822;BME280;55834;50.870;4.606;2023-05-22T00:15:58;100902.22;;;11.89;62.62
68822;BME280;55834;50.870;4.606;2023-05-22T00:18:24;100894.16;;;12.47;61.20
68822;BME280;55834;50.870;4.606;2023-05-22T00:20:51;100907.53;;;11.60;63.33
68822;BME280;55834;50.870;4.606;2023-05-22T00:23:17;100900.25;;;12.77;62.23
68822;BME280;55834;50.870;4.606;2023-05-22T00:25:43;100892.75;;;12.63;59.87
68822;BME280;55834;50.870;4.606;2023-05-22T00:28:10;100893.31;;;12.47;61.12
68822;BME280;55834;50.870;4.606;2023-05-22T00:30:36;100898.25;;;11.14;65.88
68822;BME280;55834;50.870;4.606;2023-05-22T00:33:01;100886.63;;;12.35;64.23
68822;BME280;55834;50.870;4.606;2023-05-22T00:35:28;100892.22;;;12.52;62.00
68822;BME280;55834;50.870;4.606;2023-05-22T00:37:53;100895.19;;;11.88;63.88
68822;BME280;55834;50.870;4.606;2023-05-22T00:40:20;100898.00;;;11.23;65.49
68822;BME280;55834;50.870;4.606;2023-05-22T00:42:45;100894.13;;;11.95;63.16
68822;BME280;55834;50.870;4.606;2023-05-22T00:45:13;100897.81;;;11.90;63.75
68822;BME280;55834;50.870;4.606;2023-05-22T00:47:39;100897.94;;;11.85;65.02
68822;BME280;55834;50.870;4.606;2023-05-22T00:50:05;100892.66;;;11.56;65.64
68822;BME280;55834;50.870;4.606;2023-05-22T00:52:32;100889.47;;;11.13;65.99
68822;BME280;55834;50.870;4.606;2023-05-22T00:54:59;100897.16;;;11.52;65.88
68822;BME280;55834;50.870;4.606;2023-05-22T00:57:24;100891.91;;;11.21;65.78
68822;BME280;55834;50.870;4.606;2023-05-22T00:59:50;100893.34;;;11.00;68.15
68822;BME280;55834;50.870;4.606;2023-05-22T01:02:16;100883.72;;;11.61;66.02
68822;BME280;55834;50.870;4.606;2023-05-22T01:04:46;100887.31;;;11.59;64.20
68822;BME280;55834;50.870;4.606;2023-05-22T01:07:14;100874.88;;;12.17;64.02
68822;BME280;55834;50.870;4.606;2023-05-22T01:09:42;100884.38;;;11.96;62.55
68822;BME280;55834;50.870;4.606;2023-05-22T01:17:47;100879.09;;;11.68;63.55
68822;BME280;55834;50.870;4.606;2023-05-22T01:23:14;100882.16;;;11.52;64.93
68822;BME280;55834;50.870;4.606;2023-05-22T01:31:18;100865.97;;;12.19;63.77
68822;BME280;55834;50.870;4.606;2023-05-22T01:33:51;100869.91;;;11.20;67.62
68822;BME280;55834;50.870;4.606;2023-05-22T01:36:20;100864.41;;;11.86;65.55
68822;BME280;55834;50.870;4.606;2023-05-22T01:38:49;100859.09;;;11.58;64.39
68822;BME280;55834;50.870;4.606;2023-05-22T01:41:16;100863.75;;;11.79;66.17
68822;BME280;55834;50.870;4.606;2023-05-22T01:43:41;100858.44;;;11.20;66.49
68822;BME280;55834;50.870;4.606;2023-05-22T01:46:07;100859.94;;;11.88;64.87
68822;BME280;55834;50.870;4.606;2023-05-22T01:48:34;100861.72;;;11.29;66.51
68822;BME280;55834;50.870;4.606;2023-05-22T01:51:14;100858.72;;;11.11;68.41
68822;BME280;55834;50.870;4.606;2023-05-22T01:53:48;100863.56;;;10.62;67.53
68822;BME280;55834;50.870;4.606;2023-05-22T01:56:19;100854.16;;;11.45;66.81
68822;BME280;55834;50.870;4.606;2023-05-22T01:59:28;100864.69;;;10.86;66.73
68822;BME280;55834;50.870;4.606;2023-05-22T02:02:00;100854.59;;;11.89;66.98
68822;BME280;55834;50.870;4.606;2023-05-22T02:04:28;100858.41;;;11.21;67.35
68822;BME280;55834;50.870;4.606;2023-05-22T02:06:56;100853.72;;;11.89;65.30
68822;BME280;55834;50.870;4.606;2023-05-22T02:09:27;100845.69;;;12.18;64.25
68822;BME280;55834;50.870;4.606;2023-05-22T02:11:54;100860.59;;;11.94;64.88
68822;BME280;55834;50.870;4.606;2023-05-22T02:14:20;100861.72;;;11.59;64.73
68822;BME280;55834;50.870;4.606;2023-05-22T02:16:46;100854.16;;;12.03;63.64
68822;BME280;55834;50.870;4.606;2023-05-22T02:19:13;100861.56;;;12.18;63.10
68822;BME280;55834;50.870;4.606;2023-05-22T02:21:39;100862.16;;;12.28;63.72
68822;BME280;55834;50.870;4.606;2023-05-22T02:24:05;100857.66;;;12.04;64.02
68822;BME280;55834;50.870;4.606;2023-05-22T02:26:30;100862.75;;;11.24;66.85
68822;BME280;55834;50.870;4.606;2023-05-22T02:28:56;100861.03;;;12.09;66.35
68822;BME280;55834;50.870;4.606;2023-05-22T02:31:21;100863.25;;;11.37;65.60
68822;BME280;55834;50.870;4.606;2023-05-22T02:33:46;100854.25;;;10.47;69.10
68822;BME280;55834;50.870;4.606;2023-05-22T02:36:12;100856.59;;;10.92;67.63
68822;BME280;55834;50.870;4.606;2023-05-22T02:38:38;100856.25;;;11.93;67.49
68822;BME280;55834;50.870;4.606;2023-05-22T02:41:04;100857.19;;;12.44;65.44
68822;BME280;55834;50.870;4.606;2023-05-22T02:43:30;100851.72;;;12.24;64.14
68822;BME280;55834;50.870;4.606;2023-05-22T02:45:55;100851.41;;;12.33;64.54
68822;BME280;55834;50.870;4.606;2023-05-22T02:48:21;100840.72;;;12.09;64.06
68822;BME280;55834;50.870;4.606;2023-05-22T02:50:46;100841.72;;;11.79;64.91
68822;BME280;55834;50.870;4.606;2023-05-22T02:53:13;100839.19;;;12.02;65.37
68822;BME280;55834;50.870;4.606;2023-05-22T02:55:40;100850.97;;;11.34;65.41
68822;BME280;55834;50.870;4.606;2023-05-22T02:58:06;100843.13;;;11.33;69.02
68822;BME280;55834;50.870;4.606;2023-05-22T03:00:36;100838.97;;;11.24;67.27
68822;BME280;55834;50.870;4.606;2023-05-22T03:03:02;100839.44;;;11.94;66.51
68822;BME280;55834;50.870;4.606;2023-05-22T03:05:28;100838.38;;;12.00;66.71
68822;BME280;55834;50.870;4.606;2023-05-22T03:07:53;100828.13;;;11.89;65.52
68822;BME280;55834;50.870;4.606;2023-05-22T03:10:19;100831.81;;;11.27;67.10
68822;BME280;55834;50.870;4.606;2023-05-22T03:12:44;100837.19;;;10.93;69.61
68822;BME280;55834;50.870;4.606;2023-05-22T03:15:10;100830.63;;;11.38;67.62
68822;BME280;55834;50.870;4.606;2023-05-22T03:17:35;100832.78;;;11.53;68.30
68822;BME280;55834;50.870;4.606;2023-05-22T03:20:01;100844.59;;;11.71;66.27
68822;BME280;55834;50.870;4.606;2023-05-22T03:22:27;100836.63;;;11.43;66.72
68822;BME280;55834;50.870;4.606;2023-05-22T03:24:53;100840.72;;;11.53;68.32
68822;BME280;55834;50.870;4.606;2023-05-22T03:27:18;100846.16;;;10.88;67.82
68822;BME280;55834;50.870;4.606;2023-05-22T03:29:44;100845.28;;;10.87;69.86
68822;BME280;55834;50.870;4.606;2023-05-22T03:32:09;100841.03;;;11.72;68.01
68822;BME280;55834;50.870;4.606;2023-05-22T03:34:35;100845.78;;;11.31;67.67
68822;BME280;55834;50.870;4.606;2023-05-22T03:37:00;100844.47;;;11.76;66.81
68822;BME280;55834;50.870;4.606;2023-05-22T03:39:26;100846.31;;;11.72;65.33
68822;BME280;55834;50.870;4.606;2023-05-22T03:41:51;100838.16;;;11.80;66.07
68822;BME280;55834;50.870;4.606;2023-05-22T03:44:17;100841.91;;;11.43;65.80
68822;BME280;55834;50.870;4.606;2023-05-22T03:46:42;100840.00;;;11.18;67.09
68822;BME280;55834;50.870;4.606;2023-05-22T03:49:08;100841.13;;;11.39;67.82
68822;BME280;55834;50.870;4.606;2023-05-22T03:51:33;100834.31;;;11.90;66.75
68822;BME280;55834;50.870;4.606;2023-05-22T03:53:58;100853.31;;;11.15;67.81
68822;BME280;55834;50.870;4.606;2023-05-22T03:56:24;100848.03;;;11.45;66.27
68822;BME280;55834;50.870;4.606;2023-05-22T03:58:50;100856.19;;;11.95;66.10
68822;BME280;55834;50.870;4.606;2023-05-22T04:01:16;100846.69;;;11.61;65.14
68822;BME280;55834;50.870;4.606;2023-05-22T04:03:42;100855.88;;;11.18;66.22
68822;BME280;55834;50.870;4.606;2023-05-22T04:06:07;100856.59;;;10.92;69.52
68822;BME280;55834;50.870;4.606;2023-05-22T04:08:33;100852.19;;;11.52;68.34
68822;BME280;55834;50.870;4.606;2023-05-22T04:10:58;100851.06;;;11.90;66.15
68822;BME280;55834;50.870;4.606;2023-05-22T04:13:24;100856.56;;;11.83;65.86
68822;BME280;55834;50.870;4.606;2023-05-22T04:15:50;100855.38;;;11.65;65.79
68822;BME280;55834;50.870;4.606;2023-05-22T04:18:17;100851.16;;;12.40;65.81
68822;BME280;55834;50.870;4.606;2023-05-22T04:20:42;100859.34;;;12.06;63.84
68822;BME280;55834;50.870;4.606;2023-05-22T04:23:08;100848.72;;;12.08;64.72
68822;BME280;55834;50.870;4.606;2023-05-22T04:25:34;100860.56;;;11.68;65.81
68822;BME280;55834;50.870;4.606;2023-05-22T04:28:00;100845.31;;;12.31;65.30
68822;BME280;55834;50.870;4.606;2023-05-22T04:30:29;100856.25;;;11.93;64.43
68822;BME280;55834;50.870;4.606;2023-05-22T04:32:54;100864.78;;;10.83;67.93
68822;BME280;55834;50.870;4.606;2023-05-22T04:35:21;100858.63;;;11.43;67.87
68822;BME280;55834;50.870;4.606;2023-05-22T04:37:47;100859.09;;;11.28;68.01
68822;BME280;55834;50.870;4.606;2023-05-22T04:40:12;100867.41;;;11.14;68.28
68822;BME280;55834;50.870;4.606;2023-05-22T04:42:40;100866.44;;;11.18;67.74
68822;BME280;55834;50.870;4.606;2023-05-22T04:45:07;100863.34;;;11.34;67.69
68822;BME280;55834;50.870;4.606;2023-05-22T04:47:33;100867.34;;;11.47;67.93
68822;BME280;55834;50.870;4.606;2023-05-22T04:49:59;100863.34;;;11.02;67.57
68822;BME280;55834;50.870;4.606;2023-05-22T04:52:25;100872.69;;;10.50;70.47
68822;BME280;55834;50.870;4.606;2023-05-22T04:54:51;100870.06;;;11.14;70.51
68822;BME280;55834;50.870;4.606;2023-05-22T04:57:20;100866.75;;;10.40;70.07
68822;BME280;55834;50.870;4.606;2023-05-22T04:59:46;100872.59;;;11.19;69.38
68822;BME280;55834;50.870;4.606;2023-05-22T05:02:12;100877.78;;;10.56;70.01
68822;BME280;55834;50.870;4.606;2023-05-22T05:04:38;100872.75;;;11.73;69.20
68822;BME280;55834;50.870;4.606;2023-05-22T05:07:03;100865.97;;;12.19;67.37
68822;BME280;55834;50.870;4.606;2023-05-22T05:09:30;100876.28;;;11.43;66.47
68822;BME280;55834;50.870;4.606;2023-05-22T05:11:56;100875.38;;;12.02;66.70
68822;BME280;55834;50.870;4.606;2023-05-22T05:14:22;100883.25;;;12.03;64.93
68822;BME280;55834;50.870;4.606;2023-05-22T05:16:48;100876.44;;;11.68;66.81
68822;BME280;55834;50.870;4.606;2023-05-22T05:19:18;100877.59;;;10.66;69.37
68822;BME280;55834;50.870;4.606;2023-05-22T05:21:47;100874.47;;;11.45;68.88
68822;BME280;55834;50.870;4.606;2023-05-22T05:24:14;100874.59;;;11.98;68.63
68822;BME280;55834;50.870;4.606;2023-05-22T05:26:43;100882.06;;;11.56;66.63
68822;BME280;55834;50.870;4.606;2023-05-22T05:29:08;100875.50;;;11.99;66.40
68822;BME280;55834;50.870;4.606;2023-05-22T05:31:35;100872.41;;;12.39;65.84
68822;BME280;55834;50.870;4.606;2023-05-22T05:34:00;100869.47;;;12.20;64.41
68822;BME280;55834;50.870;4.606;2023-05-22T05:36:25;100881.47;;;12.58;64.81
68822;BME280;55834;50.870;4.606;2023-05-22T05:38:51;100885.81;;;12.33;64.54
68822;BME280;55834;50.870;4.606;2023-05-22T05:41:16;100884.72;;;12.40;65.08
68822;BME280;55834;50.870;4.606;2023-05-22T05:43:43;100882.16;;;12.37;63.71
68822;BME280;55834;50.870;4.606;2023-05-22T05:46:08;100877.22;;;12.26;64.33
68822;BME280;55834;50.870;4.606;2023-05-22T05:48:34;100888.66;;;12.27;64.88
68822;BME280;55834;50.870;4.606;2023-05-22T05:50:59;100887.19;;;12.45;64.03
68822;BME280;55834;50.870;4.606;2023-05-22T05:53:27;100884.19;;;12.55;64.70
68822;BME280;55834;50.870;4.606;2023-05-22T05:55:52;100895.53;;;12.85;63.42
68822;BME280;55834;50.870;4.606;2023-05-22T05:58:17;100890.25;;;12.85;62.71
68822;BME280;55834;50.870;4.606;2023-05-22T06:00:43;100891.03;;;12.62;62.98
68822;BME280;55834;50.870;4.606;2023-05-22T06:03:08;100893.59;;;12.66;64.03
68822;BME280;55834;50.870;4.606;2023-05-22T06:05:34;100889.63;;;12.24;65.58
68822;BME280;55834;50.870;4.606;2023-05-22T06:07:59;100897.56;;;11.69;66.14
68822;BME280;55834;50.870;4.606;2023-05-22T06:10:25;100900.13;;;11.72;67.07
68822;BME280;55834;50.870;4.606;2023-05-22T06:12:50;100890.03;;;11.84;65.68
68822;BME280;55834;50.870;4.606;2023-05-22T06:15:16;100897.97;;;11.24;67.47
68822;BME280;55834;50.870;4.606;2023-05-22T06:17:42;100898.13;;;11.79;66.73
68822;BME280;55834;50.870;4.606;2023-05-22T06:20:07;100891.81;;;11.83;66.58
68822;BME280;55834;50.870;4.606;2023-05-22T06:22:33;100895.31;;;11.85;65.03
68822;BME280;55834;50.870;4.606;2023-05-22T06:24:58;100904.19;;;12.11;66.47
68822;BME280;55834;50.870;4.606;2023-05-22T06:27:24;100909.88;;;11.70;66.53
68822;BME280;55834;50.870;4.606;2023-05-22T06:29:52;100905.69;;;12.19;67.03
68822;BME280;55834;50.870;4.606;2023-05-22T06:32:17;100902.97;;;12.21;65.05
68822;BME280;55834;50.870;4.606;2023-05-22T06:34:46;100913.72;;;11.27;68.29
68822;BME280;55834;50.870;4.606;2023-05-22T06:37:12;100918.38;;;11.49;68.60
68822;BME280;55834;50.870;4.606;2023-05-22T06:39:38;100923.53;;;11.24;67.50
68822;BME280;55834;50.870;4.606;2023-05-22T06:42:04;100923.50;;;10.60;69.87
68822;BME280;55834;50.870;4.606;2023-05-22T06:44:30;100923.91;;;11.10;69.86
68822;BME280;55834;50.870;4.606;2023-05-22T06:46:56;100918.28;;;11.52;69.21
68822;BME280;55834;50.870;4.606;2023-05-22T06:49:21;100916.69;;;11.78;67.57
68822;BME280;55834;50.870;4.606;2023-05-22T06:51:47;100920.31;;;11.13;69.12
68822;BME280;55834;50.870;4.606;2023-05-22T06:54:12;100920.44;;;11.70;68.74
68822;BME280;55834;50.870;4.606;2023-05-22T06:56:42;100935.31;;;11.74;67.69
68822;BME280;55834;50.870;4.606;2023-05-22T06:59:09;100928.28;;;12.30;66.04
68822;BME280;55834;50.870;4.606;2023-05-22T07:01:35;100933.94;;;11.61;67.41
68822;BME280;55834;50.870;4.606;2023-05-22T07:04:01;100928.31;;;12.02;68.14
68822;BME280;55834;50.870;4.606;2023-05-22T07:06:32;100935.44;;;12.28;65.92
68822;BME280;55834;50.870;4.606;2023-05-22T07:08:58;100935.31;;;12.03;65.33
68822;BME280;55834;50.870;4.606;2023-05-22T07:11:24;100941.22;;;11.51;67.36
68822;BME280;55834;50.870;4.606;2023-05-22T07:13:50;100935.13;;;12.09;66.10
68822;BME280;55834;50.870;4.606;2023-05-22T07:16:15;100937.94;;;12.04;65.28
68822;BME280;55834;50.870;4.606;2023-05-22T07:18:44;100941.31;;;12.64;64.97
68822;BME280;55834;50.870;4.606;2023-05-22T07:21:10;100946.97;;;12.80;65.11
68822;BME280;55834;50.870;4.606;2023-05-22T07:23:36;100942.69;;;13.01;62.98
68822;BME280;55834;50.870;4.606;2023-05-22T07:26:02;100961.25;;;12.48;64.83
68822;BME280;55834;50.870;4.606;2023-05-22T07:28:29;100952.50;;;12.17;65.35
68822;BME280;55834;50.870;4.606;2023-05-22T07:30:54;100957.78;;;12.46;64.61
68822;BME280;55834;50.870;4.606;2023-05-22T07:33:20;100960.63;;;12.93;63.86
68822;BME280;55834;50.870;4.606;2023-05-22T07:35:46;100953.59;;;13.17;63.50
68822;BME280;55834;50.870;4.606;2023-05-22T07:38:11;100949.69;;;13.52;61.91
68822;BME280;55834;50.870;4.606;2023-05-22T07:40:37;100963.38;;;13.40;61.94
68822;BME280;55834;50.870;4.606;2023-05-22T07:43:02;100960.88;;;12.85;63.32
68822;BME280;55834;50.870;4.606;2023-05-22T07:45:27;100961.53;;;12.67;63.75
68822;BME280;55834;50.870;4.606;2023-05-22T07:47:53;100954.66;;;12.61;64.48
68822;BME280;55834;50.870;4.606;2023-05-22T07:50:18;100953.94;;;13.07;66.01
68822;BME280;55834;50.870;4.606;2023-05-22T07:52:44;100957.41;;;12.30;66.63
68822;BME280;55834;50.870;4.606;2023-05-22T07:55:10;100955.22;;;12.71;65.00
68822;BME280;55834;50.870;4.606;2023-05-22T07:57:35;100961.38;;;12.96;64.47
68822;BME280;55834;50.870;4.606;2023-05-22T08:00:02;100959.84;;;13.39;62.53
68822;BME280;55834;50.870;4.606;2023-05-22T08:02:33;100943.44;;;13.53;61.91
68822;BME280;55834;50.870;4.606;2023-05-22T08:04:59;100948.25;;;13.18;63.14
68822;BME280;55834;50.870;4.606;2023-05-22T08:07:25;100949.31;;;13.14;63.16
68822;BME280;55834;50.870;4.606;2023-05-22T08:09:50;100957.56;;;11.67;67.55
68822;BME280;55834;50.870;4.606;2023-05-22T08:12:15;100952.31;;;13.03;65.13
68822;BME280;55834;50.870;4.606;2023-05-22T08:14:41;100950.69;;;13.48;63.41
68822;BME280;55834;50.870;4.606;2023-05-22T08:17:06;100964.47;;;13.34;62.54
68822;BME280;55834;50.870;4.606;2023-05-22T08:19:32;100957.16;;;12.66;64.65
68822;BME280;55834;50.870;4.606;2023-05-22T08:21:57;100959.03;;;13.37;62.92
68822;BME280;55834;50.870;4.606;2023-05-22T08:24:26;100963.75;;;14.01;61.12
68822;BME280;55834;50.870;4.606;2023-05-22T08:26:56;100962.94;;;13.99;62.12
68822;BME280;55834;50.870;4.606;2023-05-22T08:29:25;100967.13;;;13.34;61.48
68822;BME280;55834;50.870;4.606;2023-05-22T08:31:50;100970.63;;;14.07;60.65
68822;BME280;55834;50.870;4.606;2023-05-22T08:34:18;100975.16;;;13.81;60.31
68822;BME280;55834;50.870;4.606;2023-05-22T08:36:43;100977.09;;;13.76;61.29
68822;BME280;55834;50.870;4.606;2023-05-22T08:39:09;100974.72;;;14.59;59.16
68822;BME280;55834;50.870;4.606;2023-05-22T08:41:36;100967.88;;;14.54;59.23
68822;BME280;55834;50.870;4.606;2023-05-22T08:44:02;100981.47;;;13.53;61.72
68822;BME280;55834;50.870;4.606;2023-05-22T08:46:29;100979.84;;;13.24;62.14
68822;BME280;55834;50.870;4.606;2023-05-22T08:48:55;100981.47;;;13.53;61.96
68822;BME280;55834;50.870;4.606;2023-05-22T08:51:28;100977.19;;;13.49;62.19
68822;BME280;55834;50.870;4.606;2023-05-22T08:53:55;100977.41;;;12.93;64.22
68822;BME280;55834;50.870;4.606;2023-05-22T08:56:21;100978.59;;;13.35;63.89
68822;BME280;55834;50.870;4.606;2023-05-22T08:58:48;100977.91;;;13.29;62.45
68822;BME280;55834;50.870;4.606;2023-05-22T09:01:14;100985.81;;;12.25;65.72
68822;BME280;55834;50.870;4.606;2023-05-22T09:03:40;100981.38;;;13.06;63.70
68822;BME280;55834;50.870;4.606;2023-05-22T09:06:09;100987.00;;;12.97;63.00
68822;BME280;55834;50.870;4.606;2023-05-22T09:08:40;100981.19;;;13.11;63.45
68822;BME280;55834;50.870;4.606;2023-05-22T09:11:07;100977.81;;;13.58;62.28
68822;BME280;55834;50.870;4.606;2023-05-22T09:13:32;100985.03;;;13.99;60.03
68822;BME280;55834;50.870;4.606;2023-05-22T09:15:59;100988.81;;;13.70;60.63
68822;BME280;55834;50.870;4.606;2023-05-22T09:18:31;100984.81;;;12.83;63.05
68822;BME280;55834;50.870;4.606;2023-05-22T09:20:57;100989.03;;;12.62;64.69
68822;BME280;55834;50.870;4.606;2023-05-22T09:23:25;100990.88;;;12.87;64.13
68822;BME280;55834;50.870;4.606;2023-05-22T09:25:53;100989.81;;;13.18;63.50
68822;BME280;55834;50.870;4.606;2023-05-22T09:28:20;100993.25;;;13.45;63.38
68822;BME280;55834;50.870;4.606;2023-05-22T09:30:53;101000.47;;;14.12;60.85
68822;BME280;55834;50.870;4.606;2023-05-22T09:33:19;100995.91;;;13.93;60.88
68822;BME280;55834;50.870;4.606;2023-05-22T09:35:46;100993.97;;;14.42;59.34
68822;BME280;55834;50.870;4.606;2023-05-22T09:38:12;100987.59;;;14.91;57.78
68822;BME280;55834;50.870;4.606;2023-05-22T09:40:38;100998.44;;;14.64;58.52
68822;BME280;55834;50.870;4.606;2023-05-22T09:43:08;101001.13;;;14.84;58.10
68822;BME280;55834;50.870;4.606;2023-05-22T09:45:34;101002.63;;;15.12;57.78
68822;BME280;55834;50.870;4.606;2023-05-22T09:48:03;100996.28;;;15.55;57.04
68822;BME280;55834;50.870;4.606;2023-05-22T09:50:30;100991.28;;;15.27;56.39
68822;BME280;55834;50.870;4.606;2023-05-22T09:52:55;100990.53;;;14.62;59.78
68822;BME280;55834;50.870;4.606;2023-05-22T09:55:21;100983.63;;;14.79;57.02
68822;BME280;55834;50.870;4.606;2023-05-22T09:57:50;100987.38;;;15.16;57.79
68822;BME280;55834;50.870;4.606;2023-05-22T10:00:16;100992.28;;;15.04;57.95
68822;BME280;55834;50.870;4.606;2023-05-22T10:02:57;100987.09;;;14.81;57.56
68822;BME280;55834;50.870;4.606;2023-05-22T10:05:29;100997.28;;;13.80;61.07
68822;BME280;55834;50.870;4.606;2023-05-22T10:08:01;100994.81;;;13.99;60.60
68822;BME280;55834;50.870;4.606;2023-05-22T10:10:26;100986.09;;;14.63;59.42
68822;BME280;55834;50.870;4.606;2023-05-22T10:12:56;100991.94;;;14.71;59.41
68822;BME280;55834;50.870;4.606;2023-05-22T10:15:25;101000.47;;;14.12;59.38
68822;BME280;55834;50.870;4.606;2023-05-22T10:17:51;100985.72;;;14.50;58.49
68822;BME280;55834;50.870;4.606;2023-05-22T10:20:18;100988.63;;;14.86;58.38
68822;BME280;55834;50.870;4.606;2023-05-22T10:22:45;100986.38;;;14.98;58.39
68822;BME280;55834;50.870;4.606;2023-05-22T10:25:16;100989.59;;;15.47;56.03
68822;BME280;55834;50.870;4.606;2023-05-22T10:27:42;100990.28;;;15.90;56.14
68822;BME280;55834;50.870;4.606;2023-05-22T10:33:12;100992.22;;;14.65;59.04
68822;BME280;55834;50.870;4.606;2023-05-22T10:38:45;100983.56;;;15.62;55.91
68822;BME280;55834;50.870;4.606;2023-05-22T10:41:15;100982.75;;;15.41;56.08
68822;BME280;55834;50.870;4.606;2023-05-22T10:43:41;100978.28;;;15.81;55.60
68822;BME280;55834;50.870;4.606;2023-05-22T10:46:07;100985.72;;;14.50;59.79
68822;BME280;55834;50.870;4.606;2023-05-22T10:48:45;100982.88;;;14.55;59.75
68822;BME280;55834;50.870;4.606;2023-05-22T10:51:14;100995.63;;;14.23;60.05
68822;BME280;55834;50.870;4.606;2023-05-22T10:53:42;100979.75;;;15.49;58.75
68822;BME280;55834;50.870;4.606;2023-05-22T10:56:13;100984.06;;;15.70;57.37
68822;BME280;55834;50.870;4.606;2023-05-22T10:58:41;100985.91;;;14.46;60.80
68822;BME280;55834;50.870;4.606;2023-05-22T11:09:26;100988.81;;;15.64;58.14
68822;BME280;55834;50.870;4.606;2023-05-22T11:17:16;100991.84;;;15.15;57.18
68822;BME280;55834;50.870;4.606;2023-05-22T11:19:43;100989.19;;;14.95;59.43
68822;BME280;55834;50.870;4.606;2023-05-22T11:22:08;100984.97;;;15.90;57.49
68822;BME280;55834;50.870;4.606;2023-05-22T11:24:36;100994.47;;;14.74;59.36
68822;BME280;55834;50.870;4.606;2023-05-22T11:27:05;100992.81;;;14.50;60.00
68822;BME280;55834;50.870;4.606;2023-05-22T11:29:31;100992.09;;;15.09;58.05
68822;BME280;55834;50.870;4.606;2023-05-22T11:32:03;100991.69;;;15.59;57.01
68822;BME280;55834;50.870;4.606;2023-05-22T11:34:31;100992.50;;;15.20;57.50
68822;BME280;55834;50.870;4.606;2023-05-22T11:37:09;100984.31;;;15.04;59.22
68822;BME280;55834;50.870;4.606;2023-05-22T11:40:01;100973.28;;;15.73;56.81
68822;BME280;55834;50.870;4.606;2023-05-22T11:42:28;100983.63;;;14.35;60.72
68822;BME280;55834;50.870;4.606;2023-05-22T11:44:54;100977.00;;;14.47;60.02
68822;BME280;55834;50.870;4.606;2023-05-22T11:47:20;100980.66;;;13.98;61.69
68822;BME280;55834;50.870;4.606;2023-05-22T11:49:45;100973.94;;;14.98;59.38
68822;BME280;55834;50.870;4.606;2023-05-22T11:52:11;100974.16;;;15.55;57.50
68822;BME280;55834;50.870;4.606;2023-05-22T11:54:37;100976.81;;;15.93;56.38
68822;BME280;55834;50.870;4.606;2023-05-22T11:57:04;100978.53;;;14.95;58.89
68822;BME280;55834;50.870;4.606;2023-05-22T11:59:29;100981.47;;;15.29;56.96
68822;BME280;55834;50.870;4.606;2023-05-22T12:01:55;100977.13;;;15.87;56.67
68822;BME280;55834;50.870;4.606;2023-05-22T12:04:21;100987.53;;;15.72;56.14
68822;BME280;55834;50.870;4.606;2023-05-22T12:06:47;100985.78;;;15.71;57.37
68822;BME280;55834;50.870;4.606;2023-05-22T12:09:13;100987.78;;;15.87;58.14
68822;BME280;55834;50.870;4.606;2023-05-22T12:11:38;100975.91;;;16.49;55.38
68822;BME280;55834;50.870;4.606;2023-05-22T12:14:04;100978.75;;;16.63;55.02
68822;BME280;55834;50.870;4.606;2023-05-22T12:16:36;100983.31;;;15.07;58.08
68822;BME280;55834;50.870;4.606;2023-05-22T12:19:06;100976.84;;;15.34;58.22
68822;BME280;55834;50.870;4.606;2023-05-22T12:21:32;100971.88;;;16.04;57.52
68822;BME280;55834;50.870;4.606;2023-05-22T12:24:02;100972.94;;;15.21;57.67
68822;BME280;55834;50.870;4.606;2023-05-22T12:26:28;100975.97;;;15.92;55.80
68822;BME280;55834;50.870;4.606;2023-05-22T12:28:54;100968.66;;;16.53;54.38
68822;BME280;55834;50.870;4.606;2023-05-22T12:31:22;100967.22;;;16.63;53.89
68822;BME280;55834;50.870;4.606;2023-05-22T12:33:48;100975.69;;;16.17;54.63
68822;BME280;55834;50.870;4.606;2023-05-22T12:36:13;100978.53;;;15.15;58.21
68822;BME280;55834;50.870;4.606;2023-05-22T12:38:39;100965.16;;;15.76;57.26
68822;BME280;55834;50.870;4.606;2023-05-22T12:41:05;100955.72;;;16.26;54.94
68822;BME280;55834;50.870;4.606;2023-05-22T12:43:30;100963.81;;;17.13;54.55
68822;BME280;55834;50.870;4.606;2023-05-22T12:46:04;100964.13;;;17.07;52.57
68822;BME280;55834;50.870;4.606;2023-05-22T12:48:30;100960.06;;;16.46;54.88
68822;BME280;55834;50.870;4.606;2023-05-22T12:50:55;100956.84;;;17.10;54.29
68822;BME280;55834;50.870;4.606;2023-05-22T12:53:21;100945.78;;;16.11;55.34
68822;BME280;55834;50.870;4.606;2023-05-22T12:55:46;100958.84;;;15.19;57.37
68822;BME280;55834;50.870;4.606;2023-05-22T12:58:12;100945.22;;;16.23;55.29
68822;BME280;55834;50.870;4.606;2023-05-22T13:00:37;100944.91;;;16.83;55.07
68822;BME280;55834;50.870;4.606;2023-05-22T13:03:03;100944.50;;;16.73;54.49
68822;BME280;55834;50.870;4.606;2023-05-22T13:05:29;100948.44;;;17.51;53.86
68822;BME280;55834;50.870;4.606;2023-05-22T13:07:55;100944.06;;;17.33;54.42
68822;BME280;55834;50.870;4.606;2023-05-22T13:10:20;100951.44;;;17.45;52.06
68822;BME280;55834;50.870;4.606;2023-05-22T13:12:46;100948.81;;;18.09;52.02
68822;BME280;55834;50.870;4.606;2023-05-22T13:15:15;100959.56;;;17.26;53.32
68822;BME280;55834;50.870;4.606;2023-05-22T13:17:40;100957.56;;;18.12;50.74
68822;BME280;55834;50.870;4.606;2023-05-22T13:20:06;100959.28;;;17.64;50.63
68822;BME280;55834;50.870;4.606;2023-05-22T13:22:32;100950.81;;;17.40;51.91